sensor_id;sensor_type;location;lat;lon;timestamp;P1;durP1;ratioP1;P2;durP2;ratioP2
51288;SDS011;37372;52.294;5.152;2022-09-09T00:04:32;2.03;;;0.70;;
51288;SDS011;37372;52.294;5.152;2022-09-09T00:09:29;0.55;;;0.50;;
51288;SDS011;37372;52.294;5.152;2022-09-09T00:12:21;2.28;;;0.80;;
51288;SDS011;37372;52.294;5.152;2022-09-09T00:15:11;2.55;;;0.52;;
51288;SDS011;37372;52.294;5.152;2022-09-09T00:17:43;3.30;;;0.80;;
51288;SDS011;37372;52.294;5.152;2022-09-09T00:20:19;2.47;;;0.73;;
51288;SDS011;37372;52.294;5.152;2022-09-09T00:22:54;1.92;;;0.70;;
51288;SDS011;37372;52.294;5.152;2022-09-09T00:25:47;2.10;;;0.85;;
51288;SDS011;37372;52.294;5.152;2022-09-09T00:28:42;6.07;;;1.60;;
51288;SDS011;37372;52.294;5.152;2022-09-09T00:31:18;2.28;;;1.65;;
51288;SDS011;37372;52.294;5.152;2022-09-09T00:33:49;3.17;;;1.20;;
51288;SDS011;37372;52.294;5.152;2022-09-09T00:36:17;2.05;;;0.85;;
51288;SDS011;37372;52.294;5.152;2022-09-09T00:38:48;2.95;;;1.00;;
51288;SDS011;37372;52.294;5.152;2022-09-09T00:44:00;1.98;;;0.88;;
51288;SDS011;37372;52.294;5.152;2022-09-09T00:46:51;2.85;;;1.13;;
51288;SDS011;37372;52.294;5.152;2022-09-09T00:54:48;3.13;;;1.50;;
51288;SDS011;37372;52.294;5.152;2022-09-09T00:57:34;5.30;;;1.42;;
51288;SDS011;37372;52.294;5.152;2022-09-09T01:07:57;5.15;;;1.58;;
51288;SDS011;37372;52.294;5.152;2022-09-09T01:10:39;7.03;;;1.70;;
51288;SDS011;37372;52.294;5.152;2022-09-09T01:13:16;5.53;;;1.90;;
51288;SDS011;37372;52.294;5.152;2022-09-09T01:15:49;5.25;;;3.22;;
51288;SDS011;37372;52.294;5.152;2022-09-09T01:18:17;3.78;;;2.00;;
51288;SDS011;37372;52.294;5.152;2022-09-09T01:26:18;7.25;;;2.10;;
51288;SDS011;37372;52.294;5.152;2022-09-09T01:28:48;5.15;;;1.63;;
51288;SDS011;37372;52.294;5.152;2022-09-09T01:31:19;4.60;;;1.80;;
51288;SDS011;37372;52.294;5.152;2022-09-09T01:33:47;6.13;;;2.22;;
51288;SDS011;37372;52.294;5.152;2022-09-09T01:36:19;6.75;;;2.47;;
51288;SDS011;37372;52.294;5.152;2022-09-09T01:38:49;5.28;;;2.70;;
51288;SDS011;37372;52.294;5.152;2022-09-09T01:41:14;6.03;;;2.60;;
51288;SDS011;37372;52.294;5.152;2022-09-09T01:43:39;6.30;;;2.80;;
51288;SDS011;37372;52.294;5.152;2022-09-09T01:46:05;6.47;;;2.33;;
51288;SDS011;37372;52.294;5.152;2022-09-09T01:48:30;9.43;;;2.97;;
51288;SDS011;37372;52.294;5.152;2022-09-09T01:50:56;5.65;;;2.85;;
51288;SDS011;37372;52.294;5.152;2022-09-09T01:53:22;8.93;;;2.67;;
51288;SDS011;37372;52.294;5.152;2022-09-09T01:58:53;5.63;;;2.55;;
51288;SDS011;37372;52.294;5.152;2022-09-09T02:04:36;6.45;;;2.88;;
51288;SDS011;37372;52.294;5.152;2022-09-09T02:07:02;4.97;;;2.60;;
51288;SDS011;37372;52.294;5.152;2022-09-09T02:09:35;9.43;;;3.28;;
51288;SDS011;37372;52.294;5.152;2022-09-09T02:12:03;4.88;;;3.08;;
51288;SDS011;37372;52.294;5.152;2022-09-09T02:14:35;9.45;;;3.72;;
51288;SDS011;37372;52.294;5.152;2022-09-09T02:17:08;8.77;;;3.20;;
51288;SDS011;37372;52.294;5.152;2022-09-09T02:19:37;6.75;;;3.40;;
51288;SDS011;37372;52.294;5.152;2022-09-09T02:22:26;9.30;;;3.55;;
51288;SDS011;37372;52.294;5.152;2022-09-09T02:24:54;7.05;;;3.03;;
51288;SDS011;37372;52.294;5.152;2022-09-09T02:27:24;12.60;;;4.30;;
51288;SDS011;37372;52.294;5.152;2022-09-09T02:29:49;8.35;;;4.63;;
51288;SDS011;37372;52.294;5.152;2022-09-09T02:32:19;7.70;;;3.85;;
51288;SDS011;37372;52.294;5.152;2022-09-09T02:34:48;8.13;;;4.25;;
51288;SDS011;37372;52.294;5.152;2022-09-09T02:37:20;8.88;;;4.75;;
51288;SDS011;37372;52.294;5.152;2022-09-09T02:39:50;7.03;;;3.97;;
51288;SDS011;37372;52.294;5.152;2022-09-09T02:42:15;9.18;;;4.53;;
51288;SDS011;37372;52.294;5.152;2022-09-09T02:44:41;8.77;;;4.13;;
51288;SDS011;37372;52.294;5.152;2022-09-09T02:47:11;8.57;;;4.38;;
51288;SDS011;37372;52.294;5.152;2022-09-09T02:52:18;8.77;;;5.28;;
51288;SDS011;37372;52.294;5.152;2022-09-09T02:54:51;12.38;;;5.55;;
51288;SDS011;37372;52.294;5.152;2022-09-09T02:57:25;8.65;;;5.80;;
51288;SDS011;37372;52.294;5.152;2022-09-09T02:59:52;8.98;;;5.57;;
51288;SDS011;37372;52.294;5.152;2022-09-09T03:02:18;11.27;;;5.60;;
51288;SDS011;37372;52.294;5.152;2022-09-09T03:04:44;9.52;;;5.97;;
51288;SDS011;37372;52.294;5.152;2022-09-09T03:07:15;10.93;;;6.03;;
51288;SDS011;37372;52.294;5.152;2022-09-09T03:09:42;10.23;;;6.25;;
51288;SDS011;37372;52.294;5.152;2022-09-09T03:12:07;9.30;;;6.60;;
51288;SDS011;37372;52.294;5.152;2022-09-09T03:14:32;10.70;;;5.90;;
51288;SDS011;37372;52.294;5.152;2022-09-09T03:16:58;11.70;;;5.85;;
51288;SDS011;37372;52.294;5.152;2022-09-09T03:19:26;11.02;;;5.75;;
51288;SDS011;37372;52.294;5.152;2022-09-09T03:21:52;11.38;;;5.93;;
51288;SDS011;37372;52.294;5.152;2022-09-09T03:24:18;11.63;;;5.97;;
51288;SDS011;37372;52.294;5.152;2022-09-09T03:26:43;9.88;;;6.00;;
51288;SDS011;37372;52.294;5.152;2022-09-09T03:29:12;16.83;;;5.80;;
51288;SDS011;37372;52.294;5.152;2022-09-09T03:31:38;8.88;;;5.75;;
51288;SDS011;37372;52.294;5.152;2022-09-09T03:34:04;11.32;;;5.53;;
51288;SDS011;37372;52.294;5.152;2022-09-09T03:36:30;8.55;;;5.30;;
51288;SDS011;37372;52.294;5.152;2022-09-09T03:38:56;12.05;;;5.00;;
51288;SDS011;37372;52.294;5.152;2022-09-09T03:41:23;15.32;;;5.65;;
51288;SDS011;37372;52.294;5.152;2022-09-09T03:43:50;9.10;;;4.80;;
51288;SDS011;37372;52.294;5.152;2022-09-09T03:46:19;12.23;;;4.97;;
51288;SDS011;37372;52.294;5.152;2022-09-09T03:48:45;9.48;;;4.82;;
51288;SDS011;37372;52.294;5.152;2022-09-09T03:51:10;7.45;;;4.75;;
51288;SDS011;37372;52.294;5.152;2022-09-09T03:53:36;9.02;;;5.57;;
51288;SDS011;37372;52.294;5.152;2022-09-09T03:56:02;7.53;;;4.72;;
51288;SDS011;37372;52.294;5.152;2022-09-09T03:58:29;10.32;;;5.60;;
51288;SDS011;37372;52.294;5.152;2022-09-09T04:03:34;8.88;;;4.75;;
51288;SDS011;37372;52.294;5.152;2022-09-09T04:06:02;12.00;;;5.22;;
51288;SDS011;37372;52.294;5.152;2022-09-09T04:08:29;9.32;;;5.47;;
51288;SDS011;37372;52.294;5.152;2022-09-09T04:10:56;9.18;;;5.28;;
51288;SDS011;37372;52.294;5.152;2022-09-09T04:13:22;7.78;;;4.93;;
51288;SDS011;37372;52.294;5.152;2022-09-09T04:15:52;7.85;;;4.57;;
51288;SDS011;37372;52.294;5.152;2022-09-09T04:18:20;14.77;;;5.45;;
51288;SDS011;37372;52.294;5.152;2022-09-09T04:20:49;8.43;;;4.90;;
51288;SDS011;37372;52.294;5.152;2022-09-09T04:23:16;9.60;;;4.90;;
51288;SDS011;37372;52.294;5.152;2022-09-09T04:25:44;9.90;;;4.68;;
51288;SDS011;37372;52.294;5.152;2022-09-09T04:28:11;8.55;;;4.45;;
51288;SDS011;37372;52.294;5.152;2022-09-09T04:30:37;7.40;;;4.10;;
51288;SDS011;37372;52.294;5.152;2022-09-09T04:33:04;9.40;;;4.25;;
51288;SDS011;37372;52.294;5.152;2022-09-09T04:35:30;8.52;;;4.50;;
51288;SDS011;37372;52.294;5.152;2022-09-09T04:37:55;9.73;;;4.30;;
51288;SDS011;37372;52.294;5.152;2022-09-09T04:40:21;9.20;;;4.60;;
51288;SDS011;37372;52.294;5.152;2022-09-09T04:42:47;6.32;;;3.95;;
51288;SDS011;37372;52.294;5.152;2022-09-09T04:45:15;7.97;;;3.85;;
51288;SDS011;37372;52.294;5.152;2022-09-09T04:47:41;10.60;;;4.25;;
51288;SDS011;37372;52.294;5.152;2022-09-09T04:50:07;7.25;;;3.60;;
51288;SDS011;37372;52.294;5.152;2022-09-09T04:52:36;7.38;;;4.15;;
51288;SDS011;37372;52.294;5.152;2022-09-09T04:55:02;6.93;;;3.67;;
51288;SDS011;37372;52.294;5.152;2022-09-09T04:57:27;8.35;;;4.40;;
51288;SDS011;37372;52.294;5.152;2022-09-09T04:59:53;6.80;;;3.83;;
51288;SDS011;37372;52.294;5.152;2022-09-09T05:02:19;8.40;;;3.47;;
51288;SDS011;37372;52.294;5.152;2022-09-09T05:04:44;10.77;;;4.22;;
51288;SDS011;37372;52.294;5.152;2022-09-09T05:07:10;10.45;;;3.80;;
51288;SDS011;37372;52.294;5.152;2022-09-09T05:09:35;9.43;;;3.85;;
51288;SDS011;37372;52.294;5.152;2022-09-09T05:12:01;9.38;;;3.60;;
51288;SDS011;37372;52.294;5.152;2022-09-09T05:14:27;9.60;;;4.00;;
51288;SDS011;37372;52.294;5.152;2022-09-09T05:16:53;11.27;;;3.60;;
51288;SDS011;37372;52.294;5.152;2022-09-09T05:19:18;7.60;;;3.40;;
51288;SDS011;37372;52.294;5.152;2022-09-09T05:21:44;7.50;;;3.33;;
51288;SDS011;37372;52.294;5.152;2022-09-09T05:24:10;8.07;;;3.15;;
51288;SDS011;37372;52.294;5.152;2022-09-09T05:26:36;6.15;;;3.70;;
51288;SDS011;37372;52.294;5.152;2022-09-09T05:29:01;9.02;;;3.83;;
51288;SDS011;37372;52.294;5.152;2022-09-09T05:31:26;9.82;;;3.40;;
51288;SDS011;37372;52.294;5.152;2022-09-09T05:33:55;6.63;;;3.35;;
51288;SDS011;37372;52.294;5.152;2022-09-09T05:36:21;10.88;;;3.63;;
51288;SDS011;37372;52.294;5.152;2022-09-09T05:38:47;8.07;;;3.58;;
51288;SDS011;37372;52.294;5.152;2022-09-09T05:41:13;10.35;;;4.05;;
51288;SDS011;37372;52.294;5.152;2022-09-09T05:43:40;9.10;;;5.00;;
51288;SDS011;37372;52.294;5.152;2022-09-09T05:46:11;7.47;;;3.20;;
51288;SDS011;37372;52.294;5.152;2022-09-09T05:48:38;9.65;;;3.47;;
51288;SDS011;37372;52.294;5.152;2022-09-09T05:51:05;11.38;;;3.97;;
51288;SDS011;37372;52.294;5.152;2022-09-09T05:53:33;13.38;;;4.55;;
51288;SDS011;37372;52.294;5.152;2022-09-09T05:56:09;10.82;;;3.88;;
51288;SDS011;37372;52.294;5.152;2022-09-09T05:58:37;10.70;;;3.20;;
51288;SDS011;37372;52.294;5.152;2022-09-09T06:01:07;10.98;;;3.95;;
51288;SDS011;37372;52.294;5.152;2022-09-09T06:03:35;8.88;;;3.53;;
51288;SDS011;37372;52.294;5.152;2022-09-09T06:06:02;9.80;;;4.43;;
51288;SDS011;37372;52.294;5.152;2022-09-09T06:08:32;7.60;;;3.30;;
51288;SDS011;37372;52.294;5.152;2022-09-09T06:11:12;7.70;;;3.10;;
51288;SDS011;37372;52.294;5.152;2022-09-09T06:13:42;10.68;;;4.45;;
51288;SDS011;37372;52.294;5.152;2022-09-09T06:16:12;12.32;;;4.45;;
51288;SDS011;37372;52.294;5.152;2022-09-09T06:18:39;7.35;;;3.28;;
51288;SDS011;37372;52.294;5.152;2022-09-09T06:21:06;7.25;;;3.22;;
51288;SDS011;37372;52.294;5.152;2022-09-09T06:23:36;9.30;;;3.05;;
51288;SDS011;37372;52.294;5.152;2022-09-09T06:26:11;11.68;;;4.25;;
51288;SDS011;37372;52.294;5.152;2022-09-09T06:28:39;6.55;;;3.25;;
51288;SDS011;37372;52.294;5.152;2022-09-09T06:31:05;9.98;;;3.00;;
51288;SDS011;37372;52.294;5.152;2022-09-09T06:33:36;7.05;;;2.72;;
51288;SDS011;37372;52.294;5.152;2022-09-09T06:36:06;8.70;;;2.95;;
51288;SDS011;37372;52.294;5.152;2022-09-09T06:38:35;7.78;;;2.67;;
51288;SDS011;37372;52.294;5.152;2022-09-09T06:41:01;7.20;;;3.00;;
51288;SDS011;37372;52.294;5.152;2022-09-09T06:43:26;8.50;;;2.50;;
51288;SDS011;37372;52.294;5.152;2022-09-09T06:45:53;8.48;;;2.75;;
51288;SDS011;37372;52.294;5.152;2022-09-09T06:48:29;7.03;;;2.72;;
51288;SDS011;37372;52.294;5.152;2022-09-09T06:51:02;7.65;;;2.53;;
51288;SDS011;37372;52.294;5.152;2022-09-09T06:53:32;7.80;;;2.38;;
51288;SDS011;37372;52.294;5.152;2022-09-09T06:56:02;8.95;;;2.90;;
51288;SDS011;37372;52.294;5.152;2022-09-09T06:58:41;8.27;;;2.60;;
51288;SDS011;37372;52.294;5.152;2022-09-09T07:01:09;9.90;;;2.47;;
51288;SDS011;37372;52.294;5.152;2022-09-09T07:03:37;5.18;;;2.05;;
51288;SDS011;37372;52.294;5.152;2022-09-09T07:06:03;5.47;;;2.30;;
51288;SDS011;37372;52.294;5.152;2022-09-09T07:08:30;11.88;;;2.85;;
51288;SDS011;37372;52.294;5.152;2022-09-09T07:11:01;7.78;;;2.22;;
51288;SDS011;37372;52.294;5.152;2022-09-09T07:13:29;7.05;;;2.10;;
51288;SDS011;37372;52.294;5.152;2022-09-09T07:16:02;10.82;;;2.75;;
51288;SDS011;37372;52.294;5.152;2022-09-09T07:18:31;7.93;;;2.42;;
51288;SDS011;37372;52.294;5.152;2022-09-09T07:20:56;9.55;;;2.45;;
51288;SDS011;37372;52.294;5.152;2022-09-09T07:23:22;7.63;;;2.17;;
51288;SDS011;37372;52.294;5.152;2022-09-09T07:25:47;8.60;;;3.75;;
51288;SDS011;37372;52.294;5.152;2022-09-09T07:28:13;6.97;;;2.70;;
51288;SDS011;37372;52.294;5.152;2022-09-09T07:30:39;8.63;;;2.67;;
51288;SDS011;37372;52.294;5.152;2022-09-09T07:33:05;8.88;;;2.88;;
51288;SDS011;37372;52.294;5.152;2022-09-09T07:35:30;9.75;;;2.28;;
51288;SDS011;37372;52.294;5.152;2022-09-09T07:37:56;12.80;;;2.85;;
51288;SDS011;37372;52.294;5.152;2022-09-09T07:40:22;8.10;;;3.33;;
51288;SDS011;37372;52.294;5.152;2022-09-09T07:42:47;7.55;;;2.50;;
51288;SDS011;37372;52.294;5.152;2022-09-09T07:45:13;8.35;;;2.65;;
51288;SDS011;37372;52.294;5.152;2022-09-09T07:47:39;8.23;;;2.38;;
51288;SDS011;37372;52.294;5.152;2022-09-09T07:50:06;9.65;;;2.08;;
51288;SDS011;37372;52.294;5.152;2022-09-09T07:52:33;8.48;;;2.13;;
51288;SDS011;37372;52.294;5.152;2022-09-09T07:54:58;10.75;;;2.70;;
51288;SDS011;37372;52.294;5.152;2022-09-09T07:57:25;9.40;;;2.78;;
51288;SDS011;37372;52.294;5.152;2022-09-09T07:59:50;7.82;;;2.33;;
51288;SDS011;37372;52.294;5.152;2022-09-09T08:02:17;7.55;;;2.50;;
51288;SDS011;37372;52.294;5.152;2022-09-09T08:04:42;10.80;;;2.80;;
51288;SDS011;37372;52.294;5.152;2022-09-09T08:07:08;8.82;;;3.28;;
51288;SDS011;37372;52.294;5.152;2022-09-09T08:09:33;6.55;;;2.72;;
51288;SDS011;37372;52.294;5.152;2022-09-09T08:11:58;9.65;;;2.50;;
51288;SDS011;37372;52.294;5.152;2022-09-09T08:14:25;8.55;;;3.58;;
51288;SDS011;37372;52.294;5.152;2022-09-09T08:16:51;9.38;;;2.58;;
51288;SDS011;37372;52.294;5.152;2022-09-09T08:19:18;8.02;;;2.63;;
51288;SDS011;37372;52.294;5.152;2022-09-09T08:21:44;7.00;;;2.40;;
51288;SDS011;37372;52.294;5.152;2022-09-09T08:24:10;7.03;;;2.67;;
51288;SDS011;37372;52.294;5.152;2022-09-09T08:26:38;7.30;;;2.97;;
51288;SDS011;37372;52.294;5.152;2022-09-09T08:29:06;7.93;;;2.90;;
51288;SDS011;37372;52.294;5.152;2022-09-09T08:31:36;8.00;;;3.00;;
51288;SDS011;37372;52.294;5.152;2022-09-09T08:34:03;8.32;;;3.03;;
51288;SDS011;37372;52.294;5.152;2022-09-09T08:36:30;6.43;;;2.80;;
51288;SDS011;37372;52.294;5.152;2022-09-09T08:39:02;8.48;;;2.80;;
51288;SDS011;37372;52.294;5.152;2022-09-09T08:41:39;6.57;;;2.22;;
51288;SDS011;37372;52.294;5.152;2022-09-09T08:44:10;9.65;;;2.42;;
51288;SDS011;37372;52.294;5.152;2022-09-09T08:46:45;8.57;;;2.38;;
51288;SDS011;37372;52.294;5.152;2022-09-09T08:49:44;8.07;;;2.55;;
51288;SDS011;37372;52.294;5.152;2022-09-09T08:53:01;5.97;;;1.80;;
51288;SDS011;37372;52.294;5.152;2022-09-09T08:57:35;7.07;;;3.50;;
51288;SDS011;37372;52.294;5.152;2022-09-09T09:00:01;6.47;;;2.33;;
51288;SDS011;37372;52.294;5.152;2022-09-09T09:05:06;11.00;;;2.45;;
51288;SDS011;37372;52.294;5.152;2022-09-09T09:08:00;7.28;;;2.67;;
51288;SDS011;37372;52.294;5.152;2022-09-09T09:10:33;6.78;;;2.08;;
51288;SDS011;37372;52.294;5.152;2022-09-09T09:13:03;7.00;;;1.80;;
51288;SDS011;37372;52.294;5.152;2022-09-09T09:15:38;7.43;;;2.65;;
51288;SDS011;37372;52.294;5.152;2022-09-09T09:18:04;8.30;;;2.45;;
51288;SDS011;37372;52.294;5.152;2022-09-09T09:20:33;8.68;;;2.38;;
51288;SDS011;37372;52.294;5.152;2022-09-09T09:23:09;6.57;;;1.60;;
51288;SDS011;37372;52.294;5.152;2022-09-09T09:25:44;9.93;;;2.03;;
51288;SDS011;37372;52.294;5.152;2022-09-09T09:28:16;5.97;;;1.83;;
51288;SDS011;37372;52.294;5.152;2022-09-09T09:36:15;7.80;;;2.50;;
51288;SDS011;37372;52.294;5.152;2022-09-09T09:38:57;7.60;;;2.08;;
51288;SDS011;37372;52.294;5.152;2022-09-09T09:41:31;12.75;;;2.47;;
51288;SDS011;37372;52.294;5.152;2022-09-09T09:43:58;10.65;;;2.17;;
51288;SDS011;37372;52.294;5.152;2022-09-09T09:46:25;12.70;;;2.72;;
51288;SDS011;37372;52.294;5.152;2022-09-09T09:49:01;10.60;;;1.67;;
51288;SDS011;37372;52.294;5.152;2022-09-09T09:51:28;7.03;;;1.60;;
51288;SDS011;37372;52.294;5.152;2022-09-09T09:54:31;11.23;;;2.10;;
51288;SDS011;37372;52.294;5.152;2022-09-09T09:56:53;8.52;;;1.77;;
51288;SDS011;37372;52.294;5.152;2022-09-09T09:59:24;8.48;;;1.80;;
51288;SDS011;37372;52.294;5.152;2022-09-09T10:02:15;8.88;;;1.67;;
51288;SDS011;37372;52.294;5.152;2022-09-09T10:04:42;10.18;;;2.15;;
51288;SDS011;37372;52.294;5.152;2022-09-09T10:07:17;6.53;;;1.60;;
51288;SDS011;37372;52.294;5.152;2022-09-09T10:09:43;5.35;;;1.20;;
51288;SDS011;37372;52.294;5.152;2022-09-09T10:17:38;7.13;;;1.73;;
51288;SDS011;37372;52.294;5.152;2022-09-09T10:28:51;7.53;;;1.75;;
51288;SDS011;37372;52.294;5.152;2022-09-09T10:31:32;7.05;;;1.40;;
51288;SDS011;37372;52.294;5.152;2022-09-09T10:36:41;9.38;;;1.35;;
51288;SDS011;37372;52.294;5.152;2022-09-09T10:42:06;4.30;;;1.10;;
51288;SDS011;37372;52.294;5.152;2022-09-09T10:55:25;11.77;;;1.70;;
51288;SDS011;37372;52.294;5.152;2022-09-09T10:57:58;4.60;;;1.50;;
51288;SDS011;37372;52.294;5.152;2022-09-09T11:00:31;6.05;;;1.55;;
51288;SDS011;37372;52.294;5.152;2022-09-09T11:03:02;5.47;;;1.50;;
51288;SDS011;37372;52.294;5.152;2022-09-09T11:05:30;5.95;;;1.45;;
51288;SDS011;37372;52.294;5.152;2022-09-09T11:08:22;6.05;;;2.00;;
51288;SDS011;37372;52.294;5.152;2022-09-09T11:16:01;5.75;;;1.70;;
51288;SDS011;37372;52.294;5.152;2022-09-09T11:18:38;6.07;;;1.90;;
51288;SDS011;37372;52.294;5.152;2022-09-09T11:21:07;13.75;;;3.15;;
51288;SDS011;37372;52.294;5.152;2022-09-09T11:23:47;9.38;;;1.85;;
51288;SDS011;37372;52.294;5.152;2022-09-09T11:26:27;6.22;;;1.52;;
51288;SDS011;37372;52.294;5.152;2022-09-09T11:40:15;10.38;;;1.75;;
51288;SDS011;37372;52.294;5.152;2022-09-09T11:42:45;6.47;;;1.48;;
51288;SDS011;37372;52.294;5.152;2022-09-09T11:47:51;5.85;;;1.52;;
51288;SDS011;37372;52.294;5.152;2022-09-09T11:53:02;5.80;;;1.75;;
51288;SDS011;37372;52.294;5.152;2022-09-09T11:55:47;4.38;;;1.60;;
51288;SDS011;37372;52.294;5.152;2022-09-09T11:58:24;8.07;;;1.77;;
51288;SDS011;37372;52.294;5.152;2022-09-09T12:00:50;13.63;;;1.77;;
51288;SDS011;37372;52.294;5.152;2022-09-09T12:06:17;3.70;;;1.42;;
51288;SDS011;37372;52.294;5.152;2022-09-09T12:08:51;6.10;;;1.20;;
51288;SDS011;37372;52.294;5.152;2022-09-09T12:11:23;7.63;;;1.70;;
51288;SDS011;37372;52.294;5.152;2022-09-09T12:13:54;10.88;;;2.85;;
51288;SDS011;37372;52.294;5.152;2022-09-09T12:16:31;9.40;;;2.60;;
51288;SDS011;37372;52.294;5.152;2022-09-09T12:19:21;7.72;;;2.60;;
51288;SDS011;37372;52.294;5.152;2022-09-09T12:24:42;9.60;;;2.10;;
51288;SDS011;37372;52.294;5.152;2022-09-09T12:27:28;5.45;;;1.65;;
51288;SDS011;37372;52.294;5.152;2022-09-09T12:30:09;6.05;;;1.70;;
51288;SDS011;37372;52.294;5.152;2022-09-09T12:32:37;6.85;;;2.10;;
51288;SDS011;37372;52.294;5.152;2022-09-09T12:35:03;6.00;;;2.03;;
51288;SDS011;37372;52.294;5.152;2022-09-09T12:37:37;5.68;;;1.60;;
51288;SDS011;37372;52.294;5.152;2022-09-09T12:40:27;6.53;;;2.08;;
51288;SDS011;37372;52.294;5.152;2022-09-09T12:42:53;7.15;;;1.80;;
51288;SDS011;37372;52.294;5.152;2022-09-09T12:45:24;7.30;;;1.60;;
51288;SDS011;37372;52.294;5.152;2022-09-09T12:48:01;5.75;;;1.80;;
51288;SDS011;37372;52.294;5.152;2022-09-09T12:50:36;7.63;;;2.10;;
51288;SDS011;37372;52.294;5.152;2022-09-09T12:53:21;8.60;;;2.20;;
51288;SDS011;37372;52.294;5.152;2022-09-09T12:55:52;6.63;;;2.00;;
51288;SDS011;37372;52.294;5.152;2022-09-09T12:58:23;7.03;;;2.15;;
51288;SDS011;37372;52.294;5.152;2022-09-09T13:00:50;6.72;;;2.00;;
51288;SDS011;37372;52.294;5.152;2022-09-09T13:03:17;6.38;;;2.35;;
51288;SDS011;37372;52.294;5.152;2022-09-09T13:05:45;7.90;;;2.45;;
51288;SDS011;37372;52.294;5.152;2022-09-09T13:08:12;4.95;;;2.10;;
51288;SDS011;37372;52.294;5.152;2022-09-09T13:10:51;8.05;;;2.28;;
51288;SDS011;37372;52.294;5.152;2022-09-09T13:13:23;4.78;;;2.25;;
51288;SDS011;37372;52.294;5.152;2022-09-09T13:15:58;5.80;;;3.33;;
51288;SDS011;37372;52.294;5.152;2022-09-09T13:18:29;5.03;;;2.42;;
51288;SDS011;37372;52.294;5.152;2022-09-09T13:20:58;8.00;;;2.88;;
51288;SDS011;37372;52.294;5.152;2022-09-09T13:23:26;7.10;;;2.47;;
51288;SDS011;37372;52.294;5.152;2022-09-09T13:25:54;6.82;;;2.53;;
51288;SDS011;37372;52.294;5.152;2022-09-09T13:28:28;6.72;;;2.20;;
51288;SDS011;37372;52.294;5.152;2022-09-09T13:31:04;5.53;;;2.17;;
51288;SDS011;37372;52.294;5.152;2022-09-09T13:33:43;11.48;;;3.17;;
51288;SDS011;37372;52.294;5.152;2022-09-09T13:36:09;4.60;;;2.35;;
51288;SDS011;37372;52.294;5.152;2022-09-09T13:38:38;4.18;;;2.17;;
51288;SDS011;37372;52.294;5.152;2022-09-09T13:41:36;8.95;;;3.22;;
51288;SDS011;37372;52.294;5.152;2022-09-09T13:44:14;5.68;;;2.22;;
51288;SDS011;37372;52.294;5.152;2022-09-09T13:46:45;6.72;;;2.78;;
51288;SDS011;37372;52.294;5.152;2022-09-09T13:51:40;7.43;;;2.63;;
51288;SDS011;37372;52.294;5.152;2022-09-09T13:54:09;7.90;;;2.47;;
51288;SDS011;37372;52.294;5.152;2022-09-09T13:56:36;6.10;;;2.60;;
51288;SDS011;37372;52.294;5.152;2022-09-09T13:59:04;7.45;;;2.38;;
51288;SDS011;37372;52.294;5.152;2022-09-09T14:01:31;6.50;;;2.47;;
51288;SDS011;37372;52.294;5.152;2022-09-09T14:03:59;10.30;;;2.78;;
51288;SDS011;37372;52.294;5.152;2022-09-09T14:06:25;5.88;;;2.35;;
51288;SDS011;37372;52.294;5.152;2022-09-09T14:08:51;5.60;;;2.53;;
51288;SDS011;37372;52.294;5.152;2022-09-09T14:11:17;8.60;;;1.98;;
51288;SDS011;37372;52.294;5.152;2022-09-09T14:13:43;7.90;;;1.95;;
51288;SDS011;37372;52.294;5.152;2022-09-09T14:16:09;8.02;;;1.88;;
51288;SDS011;37372;52.294;5.152;2022-09-09T14:18:34;5.60;;;1.77;;
51288;SDS011;37372;52.294;5.152;2022-09-09T14:21:00;3.47;;;1.70;;
51288;SDS011;37372;52.294;5.152;2022-09-09T14:23:27;4.22;;;1.73;;
51288;SDS011;37372;52.294;5.152;2022-09-09T14:25:54;5.82;;;2.00;;
51288;SDS011;37372;52.294;5.152;2022-09-09T14:28:19;5.93;;;1.67;;
51288;SDS011;37372;52.294;5.152;2022-09-09T14:30:45;5.32;;;1.77;;
51288;SDS011;37372;52.294;5.152;2022-09-09T14:33:11;7.13;;;2.53;;
51288;SDS011;37372;52.294;5.152;2022-09-09T14:35:38;4.22;;;1.30;;
51288;SDS011;37372;52.294;5.152;2022-09-09T14:38:04;3.08;;;1.33;;
51288;SDS011;37372;52.294;5.152;2022-09-09T14:40:30;11.05;;;2.05;;
51288;SDS011;37372;52.294;5.152;2022-09-09T14:42:55;5.70;;;1.85;;
51288;SDS011;37372;52.294;5.152;2022-09-09T14:45:22;5.55;;;1.58;;
51288;SDS011;37372;52.294;5.152;2022-09-09T14:47:49;4.13;;;1.70;;
51288;SDS011;37372;52.294;5.152;2022-09-09T14:50:15;6.18;;;2.20;;
51288;SDS011;37372;52.294;5.152;2022-09-09T14:52:41;5.38;;;1.95;;
51288;SDS011;37372;52.294;5.152;2022-09-09T14:55:06;4.97;;;1.70;;
51288;SDS011;37372;52.294;5.152;2022-09-09T14:57:32;5.40;;;2.15;;
51288;SDS011;37372;52.294;5.152;2022-09-09T14:59:57;3.92;;;1.70;;
51288;SDS011;37372;52.294;5.152;2022-09-09T15:02:23;3.45;;;1.58;;
51288;SDS011;37372;52.294;5.152;2022-09-09T15:04:48;5.80;;;1.60;;
51288;SDS011;37372;52.294;5.152;2022-09-09T15:07:15;5.93;;;1.77;;
51288;SDS011;37372;52.294;5.152;2022-09-09T15:09:41;5.40;;;1.85;;
51288;SDS011;37372;52.294;5.152;2022-09-09T15:12:07;4.35;;;1.60;;
51288;SDS011;37372;52.294;5.152;2022-09-09T15:14:32;4.68;;;1.52;;
51288;SDS011;37372;52.294;5.152;2022-09-09T15:16:57;3.60;;;1.20;;
51288;SDS011;37372;52.294;5.152;2022-09-09T15:19:23;6.18;;;1.38;;
51288;SDS011;37372;52.294;5.152;2022-09-09T15:21:48;3.53;;;0.75;;
51288;SDS011;37372;52.294;5.152;2022-09-09T15:24:14;2.67;;;0.70;;
51288;SDS011;37372;52.294;5.152;2022-09-09T15:26:39;1.20;;;0.60;;
51288;SDS011;37372;52.294;5.152;2022-09-09T15:29:05;1.88;;;0.68;;
51288;SDS011;37372;52.294;5.152;2022-09-09T15:31:32;1.95;;;0.60;;
51288;SDS011;37372;52.294;5.152;2022-09-09T15:33:58;3.15;;;0.68;;
51288;SDS011;37372;52.294;5.152;2022-09-09T15:36:27;2.17;;;0.40;;
51288;SDS011;37372;52.294;5.152;2022-09-09T15:38:53;1.45;;;0.50;;
51288;SDS011;37372;52.294;5.152;2022-09-09T15:41:20;2.90;;;0.70;;
51288;SDS011;37372;52.294;5.152;2022-09-09T15:43:50;3.25;;;0.73;;
51288;SDS011;37372;52.294;5.152;2022-09-09T15:49:15;2.00;;;0.80;;
51288;SDS011;37372;52.294;5.152;2022-09-09T15:51:46;3.97;;;1.20;;
51288;SDS011;37372;52.294;5.152;2022-09-09T15:54:16;4.43;;;1.17;;
51288;SDS011;37372;52.294;5.152;2022-09-09T15:56:43;6.22;;;1.42;;
51288;SDS011;37372;52.294;5.152;2022-09-09T15:59:09;5.10;;;1.50;;
51288;SDS011;37372;52.294;5.152;2022-09-09T16:01:34;5.05;;;1.60;;
51288;SDS011;37372;52.294;5.152;2022-09-09T16:04:01;2.83;;;0.98;;
51288;SDS011;37372;52.294;5.152;2022-09-09T16:06:27;7.55;;;1.40;;
51288;SDS011;37372;52.294;5.152;2022-09-09T16:08:54;4.97;;;1.20;;
51288;SDS011;37372;52.294;5.152;2022-09-09T16:11:27;5.35;;;1.30;;
51288;SDS011;37372;52.294;5.152;2022-09-09T16:13:54;3.03;;;0.80;;
51288;SDS011;37372;52.294;5.152;2022-09-09T16:16:21;3.25;;;1.23;;
51288;SDS011;37372;52.294;5.152;2022-09-09T16:18:49;5.10;;;1.63;;
51288;SDS011;37372;52.294;5.152;2022-09-09T16:21:18;3.60;;;1.25;;
51288;SDS011;37372;52.294;5.152;2022-09-09T16:23:45;4.95;;;1.33;;
51288;SDS011;37372;52.294;5.152;2022-09-09T16:26:11;6.82;;;1.60;;
51288;SDS011;37372;52.294;5.152;2022-09-09T16:28:38;4.40;;;1.42;;
51288;SDS011;37372;52.294;5.152;2022-09-09T16:31:05;6.85;;;1.45;;
51288;SDS011;37372;52.294;5.152;2022-09-09T16:33:41;7.85;;;1.50;;
51288;SDS011;37372;52.294;5.152;2022-09-09T16:36:10;5.03;;;1.98;;
51288;SDS011;37372;52.294;5.152;2022-09-09T16:38:38;3.83;;;1.30;;
51288;SDS011;37372;52.294;5.152;2022-09-09T16:41:04;5.07;;;1.55;;
51288;SDS011;37372;52.294;5.152;2022-09-09T16:43:31;5.60;;;1.83;;
51288;SDS011;37372;52.294;5.152;2022-09-09T16:46:00;4.25;;;1.27;;
51288;SDS011;37372;52.294;5.152;2022-09-09T16:48:27;5.05;;;1.77;;
51288;SDS011;37372;52.294;5.152;2022-09-09T16:51:00;3.95;;;1.38;;
51288;SDS011;37372;52.294;5.152;2022-09-09T16:53:27;4.45;;;1.38;;